createdAt,value
2017-10-15T00:00:01.779Z,11.49
2017-10-15T00:00:06.145Z,11.49
2017-10-15T00:00:10.246Z,11.53
2017-10-15T00:00:14.358Z,11.46
2017-10-15T00:00:18.601Z,11.45
2017-10-15T00:00:22.830Z,11.51
2017-10-15T00:00:27.327Z,11.53
2017-10-15T00:00:31.420Z,11.51
2017-10-15T00:00:35.785Z,11.49
2017-10-15T00:00:39.881Z,11.53
2017-10-15T00:00:44.244Z,11.45
2017-10-15T00:00:48.607Z,11.41
2017-10-15T00:00:52.575Z,11.54
2017-10-15T00:00:56.674Z,11.44
2017-10-15T00:01:01.038Z,11.46
2017-10-15T00:01:05.403Z,11.39
2017-10-15T00:01:09.505Z,11.48
2017-10-15T00:01:13.996Z,11.44
2017-10-15T00:01:18.236Z,11.41
2017-10-15T00:01:22.635Z,11.48
2017-10-15T00:01:26.872Z,11.41
2017-10-15T00:01:31.364Z,11.41
2017-10-15T00:01:36.001Z,11.53
2017-10-15T00:01:40.096Z,11.44
2017-10-15T00:01:44.588Z,11.44
2017-10-15T00:01:48.956Z,11.39
2017-10-15T00:01:53.184Z,11.39
2017-10-15T00:01:57.548Z,11.42
2017-10-15T00:02:01.800Z,11.39
2017-10-15T00:02:06.158Z,11.42
2017-10-15T00:02:10.396Z,11.44
2017-10-15T00:02:14.509Z,11.46
2017-10-15T00:02:18.747Z,11.44
2017-10-15T00:02:22.852Z,11.44
2017-10-15T00:02:27.225Z,11.38
2017-10-15T00:02:31.589Z,11.36
2017-10-15T00:02:35.817Z,11.39
2017-10-15T00:02:40.044Z,11.41
2017-10-15T00:02:44.016Z,11.39
2017-10-15T00:02:48.377Z,11.45
2017-10-15T00:02:52.611Z,11.45
2017-10-15T00:02:57.108Z,11.45
2017-10-15T00:03:01.342Z,11.45
2017-10-15T00:03:05.730Z,11.39
2017-10-15T00:03:10.090Z,11.42
2017-10-15T00:03:14.471Z,11.39
2017-10-15T00:03:18.838Z,11.41
2017-10-15T00:03:22.804Z,11.41
2017-10-15T00:03:27.322Z,11.39
2017-10-15T00:03:31.830Z,11.38
2017-10-15T00:03:35.801Z,11.42
2017-10-15T00:03:40.162Z,11.45
2017-10-15T00:03:44.831Z,11.38
2017-10-15T00:03:49.343Z,11.39
2017-10-15T00:03:53.441Z,11.41
2017-10-15T00:03:57.539Z,11.44
2017-10-15T00:04:01.798Z,11.44
2017-10-15T00:04:06.289Z,11.48
2017-10-15T00:04:10.665Z,11.44
2017-10-15T00:04:14.900Z,11.46
2017-10-15T00:04:19.149Z,11.44
2017-10-15T00:04:23.379Z,11.39
2017-10-15T00:04:27.612Z,11.45
2017-10-15T00:04:32.115Z,11.48
2017-10-15T00:04:35.948Z,11.42
2017-10-15T00:04:40.179Z,11.42
2017-10-15T00:04:44.547Z,11.39
2017-10-15T00:04:48.509Z,11.49
2017-10-15T00:04:52.477Z,11.39
2017-10-15T00:04:56.448Z,11.44
2017-10-15T00:05:00.819Z,11.46
2017-10-15T00:05:05.314Z,11.53
2017-10-15T00:05:09.558Z,11.49
2017-10-15T00:05:13.528Z,11.48
2017-10-15T00:05:17.764Z,11.51
2017-10-15T00:05:21.999Z,11.42
2017-10-15T00:05:26.371Z,11.54
2017-10-15T00:05:30.995Z,11.53
2017-10-15T00:05:35.358Z,11.53
2017-10-15T00:05:39.594Z,11.48
2017-10-15T00:05:43.969Z,11.53
2017-10-15T00:05:48.207Z,11.51
2017-10-15T00:05:52.440Z,11.53
2017-10-15T00:05:56.803Z,11.51
2017-10-15T00:06:01.045Z,11.51
2017-10-15T00:06:05.621Z,11.51
2017-10-15T00:06:10.112Z,11.53
2017-10-15T00:06:14.602Z,11.49
2017-10-15T00:06:18.705Z,11.54
2017-10-15T00:06:23.331Z,11.49
2017-10-15T00:06:27.571Z,11.45
2017-10-15T00:06:32.072Z,11.54
2017-10-15T00:06:36.304Z,11.49
2017-10-15T00:06:40.531Z,11.51
2017-10-15T00:06:44.633Z,11.54
2017-10-15T00:06:48.866Z,11.53
2017-10-15T00:06:53.105Z,11.49
2017-10-15T00:06:57.203Z,11.49
2017-10-15T00:07:01.736Z,11.48
2017-10-15T00:07:06.130Z,11.53
2017-10-15T00:07:10.358Z,11.49
2017-10-15T00:07:14.721Z,11.49
2017-10-15T00:07:18.955Z,11.45
2017-10-15T00:07:23.322Z,11.49
2017-10-15T00:07:27.546Z,11.53
2017-10-15T00:07:31.790Z,11.48
2017-10-15T00:07:36.045Z,11.48
2017-10-15T00:07:40.541Z,11.48
2017-10-15T00:07:44.905Z,11.48
2017-10-15T00:07:49.139Z,11.49
2017-10-15T00:07:53.497Z,11.48
2017-10-15T00:07:57.593Z,11.48
2017-10-15T00:08:02.295Z,11.51
2017-10-15T00:08:06.395Z,11.51
2017-10-15T00:08:10.627Z,11.48
2017-10-15T00:08:14.992Z,11.49
2017-10-15T00:08:19.228Z,11.48
2017-10-15T00:08:23.458Z,11.42
2017-10-15T00:08:27.554Z,11.45
2017-10-15T00:08:31.661Z,11.48
2017-10-15T00:08:36.019Z,11.49
2017-10-15T00:08:40.381Z,11.53
2017-10-15T00:08:44.221Z,11.45
2017-10-15T00:08:48.583Z,11.44
2017-10-15T00:08:52.682Z,11.46
2017-10-15T00:08:56.918Z,11.51
2017-10-15T00:09:00.892Z,11.46
2017-10-15T00:09:05.266Z,11.48
2017-10-15T00:09:09.364Z,11.53
2017-10-15T00:09:13.624Z,11.54
2017-10-15T00:09:17.977Z,11.41
2017-10-15T00:09:22.472Z,11.42
2017-10-15T00:09:26.708Z,11.41
2017-10-15T00:09:31.075Z,11.53
2017-10-15T00:09:35.302Z,11.44
2017-10-15T00:09:39.277Z,11.54
2017-10-15T00:09:43.650Z,11.53
2017-10-15T00:09:47.742Z,11.45
2017-10-15T00:09:52.103Z,11.56
2017-10-15T00:09:56.337Z,11.42
2017-10-15T00:10:00.561Z,11.44
2017-10-15T00:10:04.793Z,11.45
2017-10-15T00:10:08.897Z,11.48
2017-10-15T00:10:13.269Z,11.44
2017-10-15T00:10:17.366Z,11.49
2017-10-15T00:10:21.730Z,11.48
2017-10-15T00:10:25.987Z,11.53
2017-10-15T00:11:02.162Z,11.42
2017-10-15T00:11:06.136Z,11.46
2017-10-15T00:11:10.638Z,11.56
2017-10-15T00:11:14.750Z,11.53
2017-10-15T00:11:19.109Z,11.53
2017-10-15T00:11:23.611Z,11.54
2017-10-15T00:11:27.850Z,11.56
2017-10-15T00:11:32.081Z,11.45
2017-10-15T00:11:36.575Z,11.53
2017-10-15T00:11:40.804Z,11.6
2017-10-15T00:11:44.903Z,11.54
2017-10-15T00:11:49.139Z,11.46
2017-10-15T00:11:53.240Z,11.54
2017-10-15T00:11:57.344Z,11.49
2017-10-15T00:12:01.440Z,11.54
2017-10-15T00:12:05.742Z,11.49
2017-10-15T00:12:09.858Z,11.49
2017-10-15T00:12:13.951Z,11.53
2017-10-15T00:12:18.308Z,11.46
2017-10-15T00:12:22.668Z,11.54
2017-10-15T00:12:26.767Z,11.44
2017-10-15T00:12:31.262Z,11.59
2017-10-15T00:12:35.372Z,11.46
2017-10-15T00:12:39.336Z,11.54
2017-10-15T00:12:43.735Z,11.44
2017-10-15T00:12:47.682Z,11.44
2017-10-15T00:12:51.783Z,11.45
2017-10-15T00:12:55.877Z,11.49
2017-10-15T00:13:00.378Z,11.42
2017-10-15T00:13:05.018Z,11.42
2017-10-15T00:13:09.380Z,11.45
2017-10-15T00:13:13.348Z,11.48
2017-10-15T00:13:17.449Z,11.51
2017-10-15T00:13:21.809Z,11.51
2017-10-15T00:13:26.048Z,11.49
2017-10-15T00:13:30.279Z,11.53
2017-10-15T00:13:34.771Z,11.59
2017-10-15T00:13:39.126Z,11.57
2017-10-15T00:13:43.518Z,11.45
2017-10-15T00:13:47.761Z,11.62
2017-10-15T00:13:52.003Z,11.54
2017-10-15T00:13:56.106Z,11.53
2017-10-15T00:13:59.943Z,11.49
2017-10-15T00:14:04.254Z,11.44
2017-10-15T00:14:08.090Z,11.49
2017-10-15T00:14:12.189Z,11.56
2017-10-15T00:14:16.678Z,11.51
2017-10-15T00:14:21.047Z,11.56
2017-10-15T00:14:25.420Z,11.57
2017-10-15T00:14:29.387Z,11.48
2017-10-15T00:14:33.493Z,11.56
2017-10-15T00:14:37.862Z,11.54
2017-10-15T00:14:42.093Z,11.54
2017-10-15T00:14:46.322Z,11.44
2017-10-15T00:14:50.419Z,11.48
2017-10-15T00:14:54.800Z,11.54
2017-10-15T00:14:59.030Z,11.56
2017-10-15T00:15:03.180Z,11.53
2017-10-15T00:15:07.430Z,11.51
2017-10-15T00:15:11.539Z,11.46
2017-10-15T00:15:15.632Z,11.56
2017-10-15T00:15:19.994Z,11.56
2017-10-15T00:15:24.227Z,11.57
2017-10-15T00:15:28.580Z,11.51
2017-10-15T00:15:32.551Z,11.56
2017-10-15T00:15:36.922Z,11.57
2017-10-15T00:15:41.017Z,11.51
2017-10-15T00:15:45.516Z,11.53
2017-10-15T00:15:49.752Z,11.56
2017-10-15T00:15:53.851Z,11.62
2017-10-15T00:15:58.080Z,11.44
2017-10-15T00:16:02.715Z,11.48
2017-10-15T00:16:06.952Z,11.53
2017-10-15T00:16:11.187Z,11.51
2017-10-15T00:16:15.546Z,11.54
2017-10-15T00:16:19.910Z,11.44
2017-10-15T00:16:24.139Z,11.49
2017-10-15T00:16:28.508Z,11.49
2017-10-15T00:16:32.339Z,11.44
2017-10-15T00:16:36.583Z,11.49
2017-10-15T00:16:40.809Z,11.51
2017-10-15T00:16:44.647Z,11.53
2017-10-15T00:16:48.745Z,11.46
2017-10-15T00:16:53.237Z,11.54
2017-10-15T00:16:57.464Z,11.48
2017-10-15T00:17:02.090Z,11.54
2017-10-15T00:17:06.322Z,11.56
2017-10-15T00:17:10.682Z,11.49
2017-10-15T00:17:14.915Z,11.6
2017-10-15T00:17:19.561Z,11.54
2017-10-15T00:17:23.787Z,11.59
2017-10-15T00:17:28.417Z,11.51
2017-10-15T00:17:32.652Z,11.46
2017-10-15T00:17:36.884Z,11.48
2017-10-15T00:17:40.845Z,11.49
2017-10-15T00:17:45.078Z,11.49
2017-10-15T00:17:49.207Z,11.51
2017-10-15T00:17:53.578Z,11.51
2017-10-15T00:17:57.678Z,11.51
2017-10-15T00:18:02.142Z,11.53
2017-10-15T00:18:06.370Z,11.45
2017-10-15T00:18:10.614Z,11.49
2017-10-15T00:18:14.850Z,11.51
2017-10-15T00:18:19.080Z,11.46
2017-10-15T00:18:23.582Z,11.44
2017-10-15T00:18:27.939Z,11.48
2017-10-15T00:18:32.037Z,11.49
2017-10-15T00:18:36.135Z,11.45
2017-10-15T00:18:40.504Z,11.48
2017-10-15T00:18:44.868Z,11.49
2017-10-15T00:18:49.227Z,11.41
2017-10-15T00:18:53.469Z,11.51
2017-10-15T00:18:57.703Z,11.46
2017-10-15T00:19:01.938Z,11.48
2017-10-15T00:19:06.297Z,11.45
2017-10-15T00:19:10.661Z,11.54
2017-10-15T00:19:15.186Z,11.56
2017-10-15T00:19:19.418Z,11.46
2017-10-15T00:19:23.521Z,11.49
2017-10-15T00:19:28.032Z,11.51
2017-10-15T00:19:32.397Z,11.49
2017-10-15T00:19:36.884Z,11.48
2017-10-15T00:19:41.262Z,11.49
2017-10-15T00:19:45.490Z,11.49
2017-10-15T00:19:49.720Z,11.44
2017-10-15T00:19:54.334Z,11.48
2017-10-15T00:19:58.693Z,11.48
2017-10-15T00:20:03.340Z,11.45
2017-10-15T00:20:07.311Z,11.54
2017-10-15T00:20:11.685Z,11.51
2017-10-15T00:20:15.943Z,11.48
2017-10-15T00:20:20.176Z,11.53
2017-10-15T00:20:24.409Z,11.46
2017-10-15T00:20:28.776Z,11.53
2017-10-15T00:20:32.737Z,11.53
2017-10-15T00:20:37.108Z,11.49
2017-10-15T00:20:41.211Z,11.54
2017-10-15T00:20:45.320Z,11.51
2017-10-15T00:20:49.550Z,11.51
2017-10-15T00:20:53.921Z,11.54
2017-10-15T00:20:58.441Z,11.51
2017-10-15T00:21:02.772Z,11.51
2017-10-15T00:21:07.011Z,11.54
2017-10-15T00:21:10.978Z,11.45
2017-10-15T00:21:15.221Z,11.54
2017-10-15T00:21:19.450Z,11.53
2017-10-15T00:21:23.691Z,11.48
2017-10-15T00:21:27.921Z,11.51
2017-10-15T00:21:32.541Z,11.48
2017-10-15T00:21:36.904Z,11.46
2017-10-15T00:21:40.870Z,11.38
2017-10-15T00:21:44.969Z,11.48
2017-10-15T00:21:49.078Z,11.46
2017-10-15T00:21:53.469Z,11.39
2017-10-15T00:21:57.561Z,11.41
2017-10-15T00:22:01.656Z,11.42
2017-10-15T00:22:05.642Z,11.41
2017-10-15T00:22:09.915Z,11.46
2017-10-15T00:22:14.284Z,11.42
2017-10-15T00:22:18.514Z,11.44
2017-10-15T00:22:22.886Z,11.35
2017-10-15T00:22:26.984Z,11.39
2017-10-15T00:22:31.077Z,11.35
2017-10-15T00:22:35.443Z,11.42
2017-10-15T00:22:39.814Z,11.41
2017-10-15T00:22:44.307Z,11.38
2017-10-15T00:22:48.534Z,11.38
2017-10-15T00:22:52.811Z,11.42
2017-10-15T00:22:57.042Z,11.41
2017-10-15T00:23:01.156Z,11.35
2017-10-15T00:23:05.260Z,11.42
2017-10-15T00:23:09.354Z,11.39
2017-10-15T00:23:13.316Z,11.35
2017-10-15T00:23:17.563Z,11.41
2017-10-15T00:23:21.527Z,11.44
2017-10-15T00:23:25.616Z,11.33
2017-10-15T00:23:29.713Z,11.35
2017-10-15T00:23:33.945Z,11.27
2017-10-15T00:23:38.303Z,11.41
2017-10-15T00:23:42.535Z,11.3
2017-10-15T00:23:46.501Z,11.36
2017-10-15T00:23:50.603Z,11.41
2017-10-15T00:23:55.094Z,11.45
2017-10-15T00:23:59.063Z,11.39
2017-10-15T00:24:03.430Z,11.35
2017-10-15T00:24:07.802Z,11.39
2017-10-15T00:24:12.174Z,11.38
2017-10-15T00:24:16.672Z,11.38
2017-10-15T00:24:21.185Z,11.35
2017-10-15T00:24:25.569Z,11.35
2017-10-15T00:24:29.927Z,11.42
2017-10-15T00:24:34.418Z,11.27
2017-10-15T00:24:38.780Z,11.35
2017-10-15T00:24:43.141Z,11.31
2017-10-15T00:24:47.121Z,11.36
2017-10-15T00:24:51.211Z,11.36
2017-10-15T00:24:55.183Z,11.36
2017-10-15T00:24:59.410Z,11.3
2017-10-15T00:25:03.790Z,11.36
2017-10-15T00:25:07.895Z,11.36
2017-10-15T00:25:11.993Z,11.33
2017-10-15T00:25:16.499Z,11.31
2017-10-15T00:25:20.467Z,11.3
2017-10-15T00:25:24.830Z,11.38
2017-10-15T00:25:29.198Z,11.36
2017-10-15T00:25:33.425Z,11.33
2017-10-15T00:25:37.523Z,11.36
2017-10-15T00:25:41.623Z,11.39
2017-10-15T00:25:45.861Z,11.33
2017-10-15T00:25:49.830Z,11.38
2017-10-15T00:25:54.198Z,11.38
2017-10-15T00:25:58.294Z,11.36
2017-10-15T00:26:02.745Z,11.36
2017-10-15T00:26:06.845Z,11.38
2017-10-15T00:26:11.209Z,11.35
2017-10-15T00:26:15.307Z,11.3
2017-10-15T00:26:19.284Z,11.38
2017-10-15T00:26:23.385Z,11.38
2017-10-15T00:26:27.619Z,11.38
2017-10-15T00:26:31.849Z,11.3
2017-10-15T00:26:36.351Z,11.41
2017-10-15T00:26:40.853Z,11.31
2017-10-15T00:26:44.950Z,11.36
2017-10-15T00:26:49.052Z,11.39
2017-10-15T00:26:52.892Z,11.36
2017-10-15T00:26:57.522Z,11.31
2017-10-15T00:27:01.883Z,11.35
2017-10-15T00:27:05.990Z,11.36
2017-10-15T00:27:10.105Z,11.38
2017-10-15T00:27:14.207Z,11.28
2017-10-15T00:27:18.440Z,11.38
2017-10-15T00:27:22.535Z,11.31
2017-10-15T00:27:26.630Z,11.35
2017-10-15T00:27:30.863Z,11.35
2017-10-15T00:27:35.093Z,11.36
2017-10-15T00:27:39.324Z,11.38
2017-10-15T00:27:43.294Z,11.38
2017-10-15T00:27:47.389Z,11.35
2017-10-15T00:27:51.754Z,11.31
2017-10-15T00:27:55.851Z,11.39
2017-10-15T00:27:59.952Z,11.41
2017-10-15T00:28:04.051Z,11.35
2017-10-15T00:28:08.555Z,11.35
2017-10-15T00:28:13.055Z,11.35
2017-10-15T00:28:17.147Z,11.26
2017-10-15T00:28:21.393Z,11.36
2017-10-15T00:28:25.479Z,11.45
2017-10-15T00:28:29.713Z,11.26
2017-10-15T00:28:34.092Z,11.35
2017-10-15T00:28:38.621Z,11.3
2017-10-15T00:28:42.859Z,11.3
2017-10-15T00:28:46.832Z,11.31
2017-10-15T00:28:50.802Z,11.31
2017-10-15T00:28:54.899Z,11.36
2017-10-15T00:28:59.127Z,11.31
2017-10-15T00:29:18.134Z,11.36
2017-10-15T00:29:22.230Z,11.39
2017-10-15T00:29:26.721Z,11.38
2017-10-15T00:29:30.951Z,11.38
2017-10-15T00:29:35.193Z,11.26
2017-10-15T00:29:39.550Z,11.33
2017-10-15T00:29:43.778Z,11.36
2017-10-15T00:29:48.271Z,11.33
2017-10-15T00:29:52.369Z,11.31
2017-10-15T00:29:56.858Z,11.44
2017-10-15T00:30:00.959Z,11.33
2017-10-15T00:30:05.061Z,11.27
2017-10-15T00:30:09.552Z,11.36
2017-10-15T00:30:13.798Z,11.35
2017-10-15T00:30:18.307Z,11.39
2017-10-15T00:30:22.663Z,11.38
2017-10-15T00:30:26.781Z,11.36
2017-10-15T00:30:31.147Z,11.35
2017-10-15T00:30:35.381Z,11.39
2017-10-15T00:30:39.618Z,11.41
2017-10-15T00:30:43.845Z,11.41
2017-10-15T00:30:47.952Z,11.31
2017-10-15T00:30:52.308Z,11.36
2017-10-15T00:30:56.542Z,11.41
2017-10-15T00:31:01.046Z,11.39
2017-10-15T00:31:05.445Z,11.41
2017-10-15T00:31:09.680Z,11.33
2017-10-15T00:31:13.917Z,11.31
2017-10-15T00:31:18.156Z,11.41
2017-10-15T00:31:22.255Z,11.42
2017-10-15T00:31:26.351Z,11.36
2017-10-15T00:31:30.849Z,11.36
2017-10-15T00:31:35.340Z,11.39
2017-10-15T00:31:39.565Z,11.35
2017-10-15T00:31:43.658Z,11.36
2017-10-15T00:31:48.296Z,11.35
2017-10-15T00:31:52.523Z,11.35
2017-10-15T00:31:57.014Z,11.36
2017-10-15T00:32:01.514Z,11.35
2017-10-15T00:32:05.792Z,11.41
2017-10-15T00:32:10.026Z,11.38
2017-10-15T00:32:14.260Z,11.35
2017-10-15T00:32:18.626Z,11.41
2017-10-15T00:32:22.863Z,11.39
2017-10-15T00:32:27.095Z,11.39
2017-10-15T00:32:31.206Z,11.31
2017-10-15T00:32:35.297Z,11.36
2017-10-15T00:32:39.132Z,11.36
2017-10-15T00:32:43.621Z,11.39
2017-10-15T00:32:48.000Z,11.31
2017-10-15T00:32:52.226Z,11.33
2017-10-15T00:32:56.458Z,11.35
2017-10-15T00:33:00.848Z,11.35
2017-10-15T00:33:05.078Z,11.38
2017-10-15T00:33:09.445Z,11.36
2017-10-15T00:33:13.946Z,11.3
2017-10-15T00:33:18.443Z,11.31
2017-10-15T00:33:22.668Z,11.3
2017-10-15T00:33:27.173Z,11.31
2017-10-15T00:33:31.268Z,11.38
2017-10-15T00:33:35.506Z,11.33
2017-10-15T00:33:40.006Z,11.28
2017-10-15T00:33:43.971Z,11.3
2017-10-15T00:33:48.067Z,11.36
2017-10-15T00:33:52.164Z,11.38
2017-10-15T00:33:56.397Z,11.36
2017-10-15T00:34:00.623Z,11.31
2017-10-15T00:34:05.283Z,11.38
2017-10-15T00:34:09.250Z,11.41
2017-10-15T00:34:13.637Z,11.39
2017-10-15T00:34:17.730Z,11.36
2017-10-15T00:34:21.960Z,11.38
2017-10-15T00:34:26.065Z,11.36
2017-10-15T00:34:30.297Z,11.38
2017-10-15T00:34:34.659Z,11.39
2017-10-15T00:34:38.893Z,11.36
2017-10-15T00:34:43.263Z,11.36
2017-10-15T00:34:47.491Z,11.35
2017-10-15T00:34:51.723Z,11.3
2017-10-15T00:34:55.689Z,11.36
2017-10-15T00:34:59.784Z,11.39
2017-10-15T00:35:04.016Z,11.31
2017-10-15T00:35:07.977Z,11.31
2017-10-15T00:35:11.953Z,11.39
2017-10-15T00:35:16.321Z,11.33
2017-10-15T00:35:20.681Z,11.39
2017-10-15T00:35:25.052Z,11.41
2017-10-15T00:35:29.413Z,11.39
2017-10-15T00:35:33.646Z,11.38
2017-10-15T00:35:37.747Z,11.35
2017-10-15T00:35:42.110Z,11.39
2017-10-15T00:35:46.082Z,11.35
2017-10-15T00:35:50.323Z,11.38
2017-10-15T00:35:54.438Z,11.35
2017-10-15T00:35:58.539Z,11.35
2017-10-15T00:36:02.520Z,11.36
2017-10-15T00:36:06.747Z,11.38
2017-10-15T00:36:11.099Z,11.35
2017-10-15T00:36:15.324Z,11.35
2017-10-15T00:36:19.553Z,11.36
2017-10-15T00:36:23.793Z,11.28
2017-10-15T00:36:27.898Z,11.28
2017-10-15T00:36:32.127Z,11.35
2017-10-15T00:36:36.358Z,11.35
2017-10-15T00:36:40.451Z,11.31
2017-10-15T00:36:44.833Z,11.39
2017-10-15T00:36:49.200Z,11.35
2017-10-15T00:36:53.303Z,11.38
2017-10-15T00:36:57.549Z,11.35
2017-10-15T00:37:01.659Z,11.3
2017-10-15T00:37:06.059Z,11.3
2017-10-15T00:37:10.157Z,11.35
2017-10-15T00:37:14.522Z,11.28
2017-10-15T00:37:18.885Z,11.39
2017-10-15T00:37:23.253Z,11.38
2017-10-15T00:37:27.624Z,11.41
2017-10-15T00:37:32.111Z,11.28
2017-10-15T00:37:36.475Z,11.31
2017-10-15T00:37:40.583Z,11.31
2017-10-15T00:37:44.555Z,11.42
2017-10-15T00:37:48.919Z,11.39
2017-10-15T00:37:52.886Z,11.31
2017-10-15T00:37:56.994Z,11.38
2017-10-15T00:38:00.962Z,11.31
2017-10-15T00:38:05.454Z,11.41
2017-10-15T00:38:09.682Z,11.39
2017-10-15T00:38:13.917Z,11.27
2017-10-15T00:38:18.275Z,11.36
2017-10-15T00:38:22.381Z,11.35
2017-10-15T00:38:26.615Z,11.33
2017-10-15T00:38:30.578Z,11.31
2017-10-15T00:38:34.936Z,11.3
2017-10-15T00:38:39.300Z,11.31
2017-10-15T00:38:43.532Z,11.38
2017-10-15T00:38:47.891Z,11.36
2017-10-15T00:38:52.125Z,11.41
2017-10-15T00:38:56.491Z,11.41
2017-10-15T00:39:00.461Z,11.38
2017-10-15T00:39:04.795Z,11.31
2017-10-15T00:39:08.779Z,11.3
2017-10-15T00:39:13.267Z,11.3
2017-10-15T00:39:17.628Z,11.35
2017-10-15T00:39:21.731Z,11.35
2017-10-15T00:39:26.087Z,11.36
2017-10-15T00:39:29.921Z,11.31
2017-10-15T00:39:34.277Z,11.35
2017-10-15T00:39:38.377Z,11.38
2017-10-15T00:39:42.736Z,11.36
2017-10-15T00:39:47.096Z,11.38
2017-10-15T00:39:51.465Z,11.27
2017-10-15T00:39:55.968Z,11.39
2017-10-15T00:40:00.453Z,11.24
2017-10-15T00:40:04.690Z,11.33
2017-10-15T00:40:09.218Z,11.35
2017-10-15T00:40:13.442Z,11.33
2017-10-15T00:40:17.416Z,11.38
2017-10-15T00:40:21.815Z,11.33
2017-10-15T00:40:26.042Z,11.26
2017-10-15T00:40:30.142Z,11.38
2017-10-15T00:40:34.243Z,11.35
2017-10-15T00:40:38.207Z,11.35
2017-10-15T00:40:42.174Z,11.39
2017-10-15T00:40:46.546Z,11.35
2017-10-15T00:40:51.047Z,11.39
2017-10-15T00:40:55.403Z,11.44
2017-10-15T00:40:59.502Z,11.36
2017-10-15T00:41:03.889Z,11.33
2017-10-15T00:41:08.118Z,11.33
2017-10-15T00:41:12.096Z,11.35
2017-10-15T00:41:16.327Z,11.3
2017-10-15T00:41:20.555Z,11.38
2017-10-15T00:41:24.653Z,11.38
2017-10-15T00:41:29.018Z,11.39
2017-10-15T00:41:32.984Z,11.36
2017-10-15T00:41:37.217Z,11.33
2017-10-15T00:41:41.454Z,11.3
2017-10-15T00:41:45.830Z,11.3
2017-10-15T00:41:50.206Z,11.35
2017-10-15T00:41:54.568Z,11.28
2017-10-15T00:41:59.067Z,11.39
2017-10-15T00:42:03.553Z,11.31
2017-10-15T00:42:07.650Z,11.31
2017-10-15T00:42:11.881Z,11.36
2017-10-15T00:42:16.115Z,11.3
2017-10-15T00:42:20.215Z,11.35
2017-10-15T00:42:24.447Z,11.31
2017-10-15T00:42:28.942Z,11.38
2017-10-15T00:42:33.167Z,11.38
2017-10-15T00:42:37.129Z,11.3
2017-10-15T00:42:41.371Z,11.38
2017-10-15T00:42:45.489Z,11.31
2017-10-15T00:42:49.582Z,11.36
2017-10-15T00:42:53.823Z,11.35
2017-10-15T00:42:58.061Z,11.35
2017-10-15T00:43:02.548Z,11.3
2017-10-15T00:43:06.646Z,11.33
2017-10-15T00:43:11.012Z,11.28
2017-10-15T00:43:15.241Z,11.35
2017-10-15T00:43:19.598Z,11.38
2017-10-15T00:43:24.234Z,11.35
2017-10-15T00:43:28.601Z,11.36
2017-10-15T00:43:32.961Z,11.39
2017-10-15T00:43:37.324Z,11.41
2017-10-15T00:43:41.830Z,11.35
2017-10-15T00:43:46.323Z,11.36
2017-10-15T00:43:50.431Z,11.36
2017-10-15T00:43:54.802Z,11.36
2017-10-15T00:43:59.028Z,11.33
2017-10-15T00:44:03.524Z,11.33
2017-10-15T00:44:07.886Z,11.38
2017-10-15T00:44:12.372Z,11.36
2017-10-15T00:44:16.729Z,11.26
2017-10-15T00:44:21.098Z,11.33
2017-10-15T00:44:25.363Z,11.33
2017-10-15T00:44:29.591Z,11.36
2017-10-15T00:44:33.952Z,11.26
2017-10-15T00:44:38.188Z,11.41
2017-10-15T00:44:42.555Z,11.3
2017-10-15T00:44:46.785Z,11.42
2017-10-15T00:44:51.285Z,11.44
2017-10-15T00:44:55.382Z,11.3
2017-10-15T00:44:59.751Z,11.31
2017-10-15T00:45:04.432Z,11.28
2017-10-15T00:45:08.535Z,11.31
2017-10-15T00:45:12.498Z,11.3
2017-10-15T00:45:16.863Z,11.3
2017-10-15T00:45:21.363Z,11.28
2017-10-15T00:45:25.716Z,11.35
2017-10-15T00:45:29.816Z,11.36
2017-10-15T00:45:34.209Z,11.33
2017-10-15T00:45:38.573Z,11.26
2017-10-15T00:45:42.806Z,11.28
2017-10-15T00:45:46.901Z,11.31
2017-10-15T00:45:51.003Z,11.28
2017-10-15T00:45:55.356Z,11.3
2017-10-15T00:45:59.720Z,11.26
2017-10-15T00:46:03.999Z,11.28
2017-10-15T00:46:07.967Z,11.27
2017-10-15T00:46:12.342Z,11.27
2017-10-15T00:46:16.575Z,11.24
2017-10-15T00:46:20.943Z,11.28
2017-10-15T00:46:25.313Z,11.27
2017-10-15T00:46:29.288Z,11.19
2017-10-15T00:46:33.524Z,11.24
2017-10-15T00:46:38.014Z,11.28
2017-10-15T00:46:42.240Z,11.21
2017-10-15T00:46:46.470Z,11.19
2017-10-15T00:46:50.828Z,11.28
2017-10-15T00:46:55.061Z,11.2
2017-10-15T00:46:59.288Z,11.24
2017-10-15T00:47:03.554Z,11.19
2017-10-15T00:47:07.655Z,11.28
2017-10-15T00:47:12.016Z,11.27
2017-10-15T00:47:16.415Z,11.26
2017-10-15T00:47:20.791Z,11.3
2017-10-15T00:47:25.155Z,11.13
2017-10-15T00:47:29.670Z,11.2
2017-10-15T00:47:34.024Z,11.28
2017-10-15T00:47:38.386Z,11.28
2017-10-15T00:47:42.483Z,11.2
2017-10-15T00:47:46.726Z,11.19
2017-10-15T00:47:50.823Z,11.13
2017-10-15T00:47:54.792Z,11.19
2017-10-15T00:47:59.162Z,11.21
2017-10-15T00:48:03.391Z,11.26
2017-10-15T00:48:07.495Z,11.21
2017-10-15T00:48:11.736Z,11.21
2017-10-15T00:48:15.974Z,11.19
2017-10-15T00:48:20.216Z,11.23
2017-10-15T00:48:24.715Z,11.19
2017-10-15T00:48:29.073Z,11.19
2017-10-15T00:48:33.305Z,11.17
2017-10-15T00:48:37.536Z,11.19
2017-10-15T00:48:41.636Z,11.17
2017-10-15T00:48:45.867Z,11.21
2017-10-15T00:48:50.094Z,11.24
2017-10-15T00:48:54.058Z,11.23
2017-10-15T00:48:58.414Z,11.19
2017-10-15T00:49:02.779Z,11.17
2017-10-15T00:49:07.407Z,11.23
2017-10-15T00:49:11.648Z,11.13
2017-10-15T00:49:16.018Z,11.21
2017-10-15T00:49:20.119Z,11.2
2017-10-15T00:49:24.619Z,11.12
2017-10-15T00:49:28.719Z,11.17
2017-10-15T00:49:32.683Z,11.11
2017-10-15T00:49:36.781Z,11.16
2017-10-15T00:49:41.175Z,11.16
2017-10-15T00:49:45.536Z,11.2
2017-10-15T00:49:49.634Z,11.17
2017-10-15T00:49:54.122Z,11.2
2017-10-15T00:49:58.359Z,11.17
2017-10-15T00:50:02.590Z,11.23
2017-10-15T00:50:06.832Z,11.08
2017-10-15T00:50:11.209Z,11.2
2017-10-15T00:50:15.445Z,11.11
2017-10-15T00:50:19.823Z,11.17
2017-10-15T00:50:24.050Z,11.12
2017-10-15T00:50:28.154Z,11.19
2017-10-15T00:50:32.134Z,11.12
2017-10-15T00:50:36.495Z,11.12
2017-10-15T00:50:40.592Z,11.16
2017-10-15T00:50:44.964Z,11.09
2017-10-15T00:50:49.460Z,11.12
2017-10-15T00:50:53.693Z,11.12
2017-10-15T00:50:58.057Z,11.12
2017-10-15T00:51:02.165Z,11.09
2017-10-15T00:51:06.666Z,11.06
2017-10-15T00:51:10.635Z,11.02
2017-10-15T00:51:15.006Z,11.02
2017-10-15T00:51:19.528Z,11.06
2017-10-15T00:51:23.503Z,11.02
2017-10-15T00:51:27.731Z,11.03
2017-10-15T00:51:32.363Z,11.03
2017-10-15T00:51:36.459Z,11.12
2017-10-15T00:51:40.426Z,11.03
2017-10-15T00:51:44.654Z,11.05
2017-10-15T00:51:48.898Z,11.05
2017-10-15T00:51:52.989Z,11.03
2017-10-15T00:51:57.347Z,11.01
2017-10-15T00:52:01.586Z,11.02
2017-10-15T00:52:06.442Z,11.03
2017-10-15T00:52:10.940Z,11.01
2017-10-15T00:52:14.907Z,11.02
2017-10-15T00:52:19.010Z,10.95
2017-10-15T00:52:23.498Z,11.01
2017-10-15T00:52:27.598Z,11.01
2017-10-15T00:52:31.830Z,10.99
2017-10-15T00:52:36.066Z,11.01
2017-10-15T00:52:40.426Z,10.94
2017-10-15T00:52:44.524Z,11.02
2017-10-15T00:52:48.893Z,10.94
2017-10-15T00:52:53.265Z,11.01
2017-10-15T00:52:57.626Z,11.01
2017-10-15T00:53:02.044Z,10.88
2017-10-15T00:53:06.400Z,10.94
2017-10-15T00:53:10.756Z,10.9
2017-10-15T00:53:15.118Z,10.9
2017-10-15T00:53:19.362Z,10.93
2017-10-15T00:53:23.852Z,10.93
2017-10-15T00:53:27.946Z,10.93
2017-10-15T00:53:32.054Z,10.88
2017-10-15T00:53:36.417Z,10.93
2017-10-15T00:53:40.650Z,10.94
2017-10-15T00:53:44.761Z,10.99
2017-10-15T00:53:48.978Z,10.95
2017-10-15T00:53:53.071Z,10.94
2017-10-15T00:53:57.165Z,10.99
2017-10-15T00:54:01.138Z,10.88
2017-10-15T00:54:05.291Z,10.99
2017-10-15T00:54:09.521Z,10.93
2017-10-15T00:54:13.885Z,10.99
2017-10-15T00:54:18.376Z,10.94
2017-10-15T00:54:22.866Z,10.98
2017-10-15T00:54:26.968Z,10.94
2017-10-15T00:54:31.073Z,10.86
2017-10-15T00:54:35.177Z,10.87
2017-10-15T00:54:39.276Z,10.83
2017-10-15T00:54:43.642Z,10.81
2017-10-15T00:54:47.612Z,10.86
2017-10-15T00:54:52.105Z,10.81
2017-10-15T00:54:56.342Z,10.9
2017-10-15T00:55:00.453Z,10.93
2017-10-15T00:55:04.953Z,10.88
2017-10-15T00:55:09.321Z,10.9
2017-10-15T00:55:13.816Z,10.81
2017-10-15T00:55:17.909Z,10.83
2017-10-15T00:55:21.875Z,10.86
2017-10-15T00:55:26.498Z,10.87
2017-10-15T00:55:30.857Z,10.91
2017-10-15T00:55:35.212Z,10.86
2017-10-15T00:55:39.715Z,10.8
2017-10-15T00:55:44.077Z,10.8